createdAt,value
2023-02-17T00:00:22.462Z,101195.16
2023-02-17T00:02:52.570Z,101182.94
2023-02-17T00:05:22.705Z,101186.44
2023-02-17T00:07:57.660Z,101180.31
2023-02-17T00:10:27.659Z,101175.63
2023-02-17T00:12:57.710Z,101181.00
2023-02-17T00:15:27.701Z,101178.06
2023-02-17T00:17:58.171Z,101184.34
2023-02-17T00:20:28.422Z,101184.66
2023-02-17T00:23:01.218Z,101175.84
2023-02-17T00:25:32.612Z,101174.38
2023-02-17T00:28:02.883Z,101175.44
2023-02-17T00:30:33.438Z,101172.94
2023-02-17T00:33:04.366Z,101172.38
2023-02-17T00:35:36.577Z,101176.81
2023-02-17T00:38:09.393Z,101171.09
2023-02-17T00:40:39.447Z,101157.16
2023-02-17T00:43:09.582Z,101174.81
2023-02-17T00:45:39.634Z,101178.53
2023-02-17T00:48:10.882Z,101179.59
2023-02-17T00:50:42.110Z,101171.34
2023-02-17T00:53:14.768Z,101172.56
2023-02-17T00:55:45.082Z,101162.53
2023-02-17T00:58:15.314Z,101155.69
2023-02-17T01:00:45.617Z,101154.41
2023-02-17T01:03:15.794Z,101163.91
2023-02-17T01:05:46.611Z,101135.97
2023-02-17T01:08:21.116Z,101149.88
2023-02-17T01:10:52.571Z,101151.34
2023-02-17T01:13:23.137Z,101134.81
2023-02-17T01:15:57.622Z,101140.75
2023-02-17T01:18:28.116Z,101151.59
2023-02-17T01:20:58.510Z,101137.59
2023-02-17T01:23:31.071Z,101140.81
2023-02-17T01:26:01.730Z,101141.31
2023-02-17T01:28:32.977Z,101133.78
2023-02-17T01:31:08.581Z,101132.16
2023-02-17T01:33:39.391Z,101131.09
2023-02-17T01:36:15.248Z,101110.59
2023-02-17T01:38:49.333Z,101103.78
2023-02-17T01:41:22.982Z,101097.00
2023-02-17T01:44:12.258Z,101099.09
2023-02-17T01:46:43.945Z,101100.72
2023-02-17T01:49:34.175Z,101090.41
2023-02-17T01:52:10.875Z,101087.16
2023-02-17T01:54:48.543Z,101079.47
2023-02-17T01:57:23.693Z,101089.25
2023-02-17T01:59:55.074Z,101086.03
2023-02-17T02:02:30.226Z,101076.28
2023-02-17T02:05:00.671Z,101076.63
2023-02-17T02:07:35.072Z,101078.69
2023-02-17T02:10:09.496Z,101076.38
2023-02-17T02:12:40.592Z,101080.50
2023-02-17T02:15:14.817Z,101072.41
2023-02-17T02:17:56.185Z,101075.22
2023-02-17T02:20:45.141Z,101072.13
2023-02-17T02:23:51.502Z,101060.44
2023-02-17T02:26:56.832Z,101062.53
2023-02-17T02:29:44.215Z,101063.44
2023-02-17T02:32:46.105Z,101055.16
2023-02-17T02:35:22.687Z,101060.16
2023-02-17T02:37:57.334Z,101062.13
2023-02-17T02:40:32.607Z,101061.56
2023-02-17T02:43:05.172Z,101047.19
2023-02-17T02:45:36.177Z,101041.44
2023-02-17T02:48:10.602Z,101046.06
2023-02-17T02:50:56.475Z,101021.97
2023-02-17T02:53:51.958Z,101023.56
2023-02-17T02:56:36.533Z,101012.63
2023-02-17T02:59:19.858Z,100992.63
2023-02-17T03:01:58.199Z,101007.59
2023-02-17T03:04:36.313Z,101000.94
2023-02-17T03:07:21.494Z,101007.94
2023-02-17T03:09:52.612Z,101004.25
2023-02-17T03:12:23.533Z,101016.06
2023-02-17T03:14:58.760Z,100991.78
2023-02-17T03:17:28.910Z,101007.06
2023-02-17T03:20:05.476Z,100999.72
2023-02-17T03:22:40.717Z,100991.09
2023-02-17T03:25:12.072Z,100995.56
2023-02-17T03:27:42.376Z,100990.91
2023-02-17T03:30:13.941Z,100991.09
2023-02-17T03:32:47.833Z,100997.38
2023-02-17T03:35:20.795Z,101004.75
2023-02-17T03:37:51.325Z,100997.38
2023-02-17T03:40:21.612Z,100989.97
2023-02-17T03:42:51.707Z,100987.59
2023-02-17T03:45:21.643Z,100965.78
2023-02-17T03:47:51.594Z,100964.97
2023-02-17T03:50:26.888Z,100964.97
2023-02-17T03:52:56.882Z,100970.41
2023-02-17T03:55:27.278Z,100963.34
2023-02-17T03:57:57.218Z,100974.31
2023-02-17T04:00:27.532Z,100964.53
2023-02-17T04:02:57.731Z,100961.31
2023-02-17T04:05:30.651Z,100960.06
2023-02-17T04:08:00.573Z,100953.59
2023-02-17T04:10:30.692Z,100957.00
2023-02-17T04:13:00.641Z,100959.66
2023-02-17T04:15:30.574Z,100961.31
2023-02-17T04:18:02.913Z,100945.16
2023-02-17T04:20:35.752Z,100950.91
2023-02-17T04:23:05.683Z,100964.53
2023-02-17T04:25:36.923Z,100937.06
2023-02-17T04:28:09.645Z,100966.34
2023-02-17T04:30:39.739Z,100968.09
2023-02-17T04:33:09.824Z,100958.78
2023-02-17T04:35:42.633Z,100957.28
2023-02-17T04:38:13.188Z,100958.03
2023-02-17T04:40:46.036Z,100948.88
2023-02-17T04:43:16.770Z,100931.84
2023-02-17T04:45:46.831Z,100932.88
2023-02-17T04:48:16.866Z,100933.47
2023-02-17T04:50:49.567Z,100946.22
2023-02-17T04:53:19.813Z,100934.34
2023-02-17T04:55:52.698Z,100934.34
2023-02-17T04:58:23.689Z,100911.34
2023-02-17T05:00:54.445Z,100934.34
2023-02-17T05:03:24.464Z,100927.56
2023-02-17T05:05:58.323Z,100934.34
2023-02-17T05:08:28.521Z,100935.97
2023-02-17T05:10:58.541Z,100934.34
2023-02-17T05:13:28.456Z,100927.56
2023-02-17T05:15:58.492Z,100912.72
2023-02-17T05:18:28.567Z,100918.38
2023-02-17T05:21:01.268Z,100903.69
2023-02-17T05:23:31.155Z,100910.25
2023-02-17T05:26:01.084Z,100892.78
2023-02-17T05:28:31.082Z,100900.47
2023-02-17T05:31:01.191Z,100901.38
2023-02-17T05:33:31.362Z,100896.66
2023-02-17T05:36:08.519Z,100896.06
2023-02-17T05:38:39.860Z,100895.47
2023-02-17T05:41:09.899Z,100876.09
2023-02-17T05:43:39.912Z,100891.78
2023-02-17T05:46:10.396Z,100887.06
2023-02-17T05:48:40.808Z,100872.13
2023-02-17T05:51:13.807Z,100874.19
2023-02-17T05:53:43.664Z,100862.53
2023-02-17T05:56:13.922Z,100866.22
2023-02-17T05:58:43.867Z,100866.50
2023-02-17T06:01:14.819Z,100863.25
2023-02-17T06:03:44.663Z,100861.63
2023-02-17T06:06:17.425Z,100855.09
2023-02-17T06:08:47.256Z,100850.97
2023-02-17T06:11:17.342Z,100866.06
2023-02-17T06:13:47.449Z,100869.03
2023-02-17T06:16:18.086Z,100860.59
2023-02-17T06:18:48.323Z,100858.38
2023-02-17T06:21:20.750Z,100871.09
2023-02-17T06:23:51.317Z,100884.72
2023-02-17T06:26:21.355Z,100875.53
2023-02-17T06:28:51.266Z,100867.09
2023-02-17T06:31:21.190Z,100860.44
2023-02-17T06:33:51.353Z,100868.13
2023-02-17T06:36:24.748Z,100866.50
2023-02-17T06:38:54.658Z,100844.00
2023-02-17T06:41:24.571Z,100858.97
2023-02-17T06:43:54.462Z,100848.16
2023-02-17T06:46:24.528Z,100849.03
2023-02-17T06:48:54.631Z,100824.00
2023-02-17T06:51:27.634Z,100825.78
2023-02-17T06:53:57.853Z,100841.19
2023-02-17T06:56:28.082Z,100849.78
2023-02-17T06:58:58.085Z,100853.03
2023-02-17T07:01:29.481Z,100860.59
2023-02-17T07:03:59.938Z,100854.81
2023-02-17T07:06:33.865Z,100862.34
2023-02-17T07:09:04.895Z,100858.22
2023-02-17T07:11:34.765Z,100848.44
2023-02-17T07:14:05.208Z,100842.53
2023-02-17T07:16:36.589Z,100854.81
2023-02-17T07:19:06.695Z,100856.16
2023-02-17T07:21:39.595Z,100858.66
2023-02-17T07:24:09.917Z,100845.31
2023-02-17T07:26:40.243Z,100822.81
2023-02-17T07:29:11.396Z,100813.63
2023-02-17T07:31:41.941Z,100822.38
2023-02-17T07:34:13.437Z,100820.75
2023-02-17T07:36:46.306Z,100801.63
2023-02-17T07:39:16.729Z,100807.41
2023-02-17T07:41:47.008Z,100795.84
2023-02-17T07:44:23.070Z,100784.44
2023-02-17T07:46:53.125Z,100785.19
2023-02-17T07:49:23.143Z,100811.25
2023-02-17T07:51:56.090Z,100789.03
2023-02-17T07:54:26.366Z,100779.25
2023-02-17T07:56:56.657Z,100802.34
2023-02-17T07:59:26.753Z,100796.88
2023-02-17T08:01:56.762Z,100792.88
2023-02-17T08:04:27.000Z,100754.09
2023-02-17T08:06:59.534Z,100789.59
2023-02-17T08:09:47.656Z,100794.03
2023-02-17T08:12:32.270Z,100790.03
2023-02-17T08:15:02.600Z,100785.72
2023-02-17T08:17:33.160Z,100794.31
2023-02-17T08:20:08.749Z,100789.44
2023-02-17T08:22:41.878Z,100773.56
2023-02-17T08:25:12.076Z,100778.59
2023-02-17T08:27:42.393Z,100777.00
2023-02-17T08:30:13.716Z,100763.78
2023-02-17T08:32:43.876Z,100782.44
2023-02-17T08:35:13.907Z,100779.19
2023-02-17T08:37:46.813Z,100767.50
2023-02-17T08:40:16.758Z,100773.38
2023-02-17T08:42:46.930Z,100765.97
2023-02-17T08:45:17.609Z,100762.59
2023-02-17T08:47:51.026Z,100758.13
2023-02-17T08:50:21.242Z,100754.00
2023-02-17T08:52:53.924Z,100751.63
2023-02-17T08:55:26.549Z,100751.16
2023-02-17T08:57:56.820Z,100744.50
2023-02-17T09:00:26.987Z,100746.25
2023-02-17T09:02:57.008Z,100746.56
2023-02-17T09:05:27.235Z,100744.91
2023-02-17T09:08:07.221Z,100728.59
2023-02-17T09:10:37.269Z,100734.66
2023-02-17T09:13:07.431Z,100734.66
2023-02-17T09:15:37.472Z,100732.41
2023-02-17T09:18:07.631Z,100738.47
2023-02-17T09:20:37.791Z,100735.19
2023-02-17T09:23:10.646Z,100742.03
2023-02-17T09:25:40.620Z,100737.25
2023-02-17T09:28:11.119Z,100726.44
2023-02-17T09:30:41.153Z,100692.22
2023-02-17T09:33:13.146Z,100734.00
2023-02-17T09:35:44.574Z,100732.50
2023-02-17T09:38:17.179Z,100728.63
2023-02-17T09:40:50.904Z,100728.63
2023-02-17T09:43:25.334Z,100736.94
2023-02-17T09:46:00.388Z,100734.56
2023-02-17T09:48:34.080Z,100732.91
2023-02-17T09:51:07.564Z,100719.44
2023-02-17T09:53:45.803Z,100722.69
2023-02-17T09:56:25.090Z,100737.63
2023-02-17T09:58:58.362Z,100718.47
2023-02-17T10:01:33.758Z,100705.94
2023-02-17T10:04:08.132Z,100704.84
2023-02-17T10:06:41.894Z,100695.41
2023-02-17T10:09:22.182Z,100689.00
2023-02-17T10:11:59.328Z,100709.34
2023-02-17T10:14:33.870Z,100686.03
2023-02-17T10:17:10.076Z,100690.31
2023-02-17T10:19:48.024Z,100692.59
2023-02-17T10:22:21.535Z,100701.03
2023-02-17T10:24:55.164Z,100695.78
2023-02-17T10:27:35.029Z,100700.56
2023-02-17T10:30:22.136Z,100690.38
2023-02-17T10:33:02.683Z,100722.84
2023-02-17T10:35:48.298Z,100717.63
2023-02-17T10:38:20.924Z,100729.63
2023-02-17T10:40:55.821Z,100717.47
2023-02-17T10:43:30.085Z,100701.16
2023-02-17T10:46:02.806Z,100686.91
2023-02-17T10:48:40.047Z,100690.13
2023-02-17T10:51:10.495Z,100679.84
2023-02-17T10:53:43.059Z,100673.31
2023-02-17T10:56:20.301Z,100675.38
2023-02-17T10:58:56.884Z,100689.25
2023-02-17T11:01:26.997Z,100671.38
2023-02-17T11:04:05.075Z,100661.28
2023-02-17T11:06:40.514Z,100673.66
2023-02-17T11:09:21.601Z,100661.38
2023-02-17T11:12:01.937Z,100636.34
2023-02-17T11:14:34.007Z,100639.25
2023-02-17T11:17:06.684Z,100650.94
2023-02-17T11:19:38.443Z,100631.66
2023-02-17T11:22:25.555Z,100635.75
2023-02-17T11:25:00.794Z,100633.41
2023-02-17T11:27:33.628Z,100625.75
2023-02-17T11:30:18.761Z,100618.34
2023-02-17T11:32:49.437Z,100642.97
2023-02-17T11:35:29.766Z,100611.91
2023-02-17T11:38:05.078Z,100612.94
2023-02-17T11:40:36.318Z,100612.44
2023-02-17T11:43:09.318Z,100614.47
2023-02-17T11:45:46.913Z,100606.44
2023-02-17T11:48:37.511Z,100599.88
2023-02-17T11:54:07.350Z,100594.44
2023-02-17T11:56:39.885Z,100594.31
2023-02-17T11:59:38.822Z,100579.53
2023-02-17T12:02:20.965Z,100570.69
2023-02-17T12:05:14.091Z,100582.94
2023-02-17T12:07:55.322Z,100562.34
2023-02-17T12:10:35.764Z,100585.72
2023-02-17T12:13:23.619Z,100587.97
2023-02-17T12:16:09.716Z,100575.97
2023-02-17T12:18:59.384Z,100595.81
2023-02-17T12:21:46.746Z,100603.38
2023-02-17T12:24:37.313Z,100584.94
2023-02-17T12:27:18.754Z,100591.16
2023-02-17T12:30:07.936Z,100606.31
2023-02-17T12:32:53.258Z,100619.44
2023-02-17T12:35:27.253Z,100615.28
2023-02-17T12:38:00.188Z,100612.97
2023-02-17T12:40:40.928Z,100632.91
2023-02-17T12:43:24.815Z,100636.81
2023-02-17T12:45:57.680Z,100635.69
2023-02-17T12:48:37.018Z,100615.22
2023-02-17T12:51:11.667Z,100621.78
2023-02-17T12:53:46.967Z,100622.53
2023-02-17T12:56:51.066Z,100626.31
2023-02-17T12:59:25.268Z,100604.59
2023-02-17T13:01:57.836Z,100627.22
2023-02-17T13:04:32.713Z,100616.22
2023-02-17T13:07:24.645Z,100570.34
2023-02-17T13:09:59.440Z,100625.06
2023-02-17T13:12:36.369Z,100605.97
2023-02-17T13:15:08.689Z,100626.16
2023-02-17T13:17:42.050Z,100639.81
2023-02-17T13:20:53.441Z,100647.88
2023-02-17T13:23:35.061Z,100646.84
2023-02-17T13:26:27.171Z,100618.19
2023-02-17T13:29:10.606Z,100655.94
2023-02-17T13:31:50.613Z,100667.88
2023-02-17T13:34:29.652Z,100667.09
2023-02-17T13:37:17.488Z,100662.47
2023-02-17T13:39:48.336Z,100689.66
2023-02-17T13:42:48.941Z,100696.13
2023-02-17T13:45:27.240Z,100687.06
2023-02-17T13:47:59.533Z,100685.44
2023-02-17T13:50:36.107Z,100690.31
2023-02-17T13:53:25.441Z,100696.75
2023-02-17T13:55:57.299Z,100703.28
2023-02-17T13:58:32.571Z,100704.50
2023-02-17T14:01:04.655Z,100690.06
2023-02-17T14:03:38.245Z,100673.69
2023-02-17T14:06:10.316Z,100699.81
2023-02-17T14:08:44.609Z,100686.25
2023-02-17T14:11:16.852Z,100678.56
2023-02-17T14:13:49.141Z,100676.38
2023-02-17T14:16:33.504Z,100691.06
2023-02-17T14:19:14.586Z,100710.78
2023-02-17T14:21:46.995Z,100696.28
2023-02-17T14:24:30.846Z,100710.38
2023-02-17T14:27:03.700Z,100712.16
2023-02-17T14:29:44.430Z,100707.09
2023-02-17T14:32:36.172Z,100698.50
2023-02-17T14:35:23.028Z,100702.06
2023-02-17T14:37:52.982Z,100687.84
2023-02-17T14:40:27.618Z,100703.22
2023-02-17T14:42:57.445Z,100714.06
2023-02-17T14:45:27.367Z,100716.00
2023-02-17T14:47:57.787Z,100704.34
2023-02-17T14:50:27.901Z,100720.81
2023-02-17T14:52:58.726Z,100712.22
2023-02-17T14:55:39.216Z,100706.78
2023-02-17T14:58:09.278Z,100703.81
2023-02-17T15:00:39.514Z,100712.22
2023-02-17T15:03:09.350Z,100702.44
2023-02-17T15:05:39.613Z,100705.84
2023-02-17T15:08:12.438Z,100724.50
2023-02-17T15:10:45.720Z,100718.88
2023-02-17T15:13:18.609Z,100723.44
2023-02-17T15:15:49.799Z,100721.94
2023-02-17T15:18:21.438Z,100732.44
2023-02-17T15:20:54.091Z,100713.56
2023-02-17T15:23:26.695Z,100706.00
2023-02-17T15:26:00.398Z,100743.88
2023-02-17T15:28:30.417Z,100734.94
2023-02-17T15:31:00.435Z,100741.50
2023-02-17T15:33:30.372Z,100744.16
2023-02-17T15:36:01.513Z,100759.28
2023-02-17T15:38:32.043Z,100758.25
2023-02-17T15:41:05.822Z,100764.47
2023-02-17T15:43:38.386Z,100771.31
2023-02-17T15:46:15.625Z,100763.16
2023-02-17T15:48:48.775Z,100772.63
2023-02-17T15:51:24.748Z,100782.69
2023-02-17T15:53:54.930Z,100777.78
2023-02-17T15:56:30.179Z,100772.03
2023-02-17T15:59:02.802Z,100795.41
2023-02-17T16:01:35.202Z,100791.41
2023-02-17T16:04:05.415Z,100795.09
2023-02-17T16:06:35.573Z,100785.91
2023-02-17T16:09:05.810Z,100790.94
2023-02-17T16:11:43.658Z,100795.22
2023-02-17T16:14:24.079Z,100799.22
2023-02-17T16:17:11.428Z,100793.63
2023-02-17T16:19:41.656Z,100801.34
2023-02-17T16:22:12.224Z,100802.22
2023-02-17T16:24:42.140Z,100795.69
2023-02-17T16:27:17.755Z,100798.97
2023-02-17T16:29:47.698Z,100790.38
2023-02-17T16:32:17.903Z,100792.13
2023-02-17T16:34:47.886Z,100787.41
2023-02-17T16:37:20.244Z,100785.66
2023-02-17T16:39:50.200Z,100797.50
2023-02-17T16:42:22.985Z,100798.13
2023-02-17T16:44:52.975Z,100795.91
2023-02-17T16:47:24.631Z,100790.56
2023-02-17T16:49:54.771Z,100809.56
2023-02-17T16:52:27.932Z,100810.16
2023-02-17T16:54:58.296Z,100804.97
2023-02-17T16:57:31.049Z,100799.22
2023-02-17T17:00:01.157Z,100809.09
2023-02-17T17:02:31.404Z,100806.59
2023-02-17T17:05:02.246Z,100814.00
2023-02-17T17:07:34.067Z,100785.44
2023-02-17T17:10:19.189Z,100824.09
2023-02-17T17:12:52.309Z,100834.00
2023-02-17T17:15:22.951Z,100849.41
2023-02-17T17:17:58.465Z,100852.97
2023-02-17T17:20:32.045Z,100852.38
2023-02-17T17:23:03.248Z,100851.91
2023-02-17T17:25:34.890Z,100841.09
2023-02-17T17:28:09.385Z,100853.81
2023-02-17T17:30:39.516Z,100859.63
2023-02-17T17:33:09.671Z,100837.81
2023-02-17T17:35:40.052Z,100857.50
2023-02-17T17:38:10.741Z,100871.16
2023-02-17T17:40:56.784Z,100880.34
2023-02-17T17:43:29.797Z,100891.44
2023-02-17T17:45:59.875Z,100923.50
2023-02-17T17:48:30.287Z,100936.09
2023-02-17T17:51:00.231Z,100953.72
2023-02-17T17:53:30.276Z,100948.41
2023-02-17T17:56:00.300Z,100954.03
2023-02-17T17:58:34.623Z,100975.41
2023-02-17T18:01:04.988Z,100959.22
2023-02-17T18:03:35.028Z,100962.03
2023-02-17T18:06:06.284Z,100979.09
2023-02-17T18:08:37.631Z,100976.09
2023-02-17T18:11:08.802Z,100977.41
2023-02-17T18:13:41.668Z,100981.22
2023-02-17T18:16:11.951Z,100987.56
2023-02-17T18:18:42.765Z,100974.03
2023-02-17T18:21:12.713Z,100993.03
2023-02-17T18:23:42.892Z,101006.59
2023-02-17T18:26:14.011Z,101006.56
2023-02-17T18:28:46.708Z,101007.72
2023-02-17T18:31:21.945Z,100991.28
2023-02-17T18:33:51.948Z,101012.34
2023-02-17T18:36:24.951Z,101003.19
2023-02-17T18:38:55.177Z,101025.06
2023-02-17T18:41:27.917Z,101035.75
2023-02-17T18:44:03.189Z,101035.66
2023-02-17T18:46:33.558Z,101046.31
2023-02-17T18:49:03.907Z,101039.50
2023-02-17T18:51:34.496Z,101061.41
2023-02-17T18:54:05.400Z,101033.19
2023-02-17T18:56:35.859Z,101029.03
2023-02-17T18:59:09.573Z,101057.47
2023-02-17T19:01:43.446Z,101061.28
2023-02-17T19:04:15.128Z,101043.31
2023-02-17T19:06:45.440Z,101070.78
2023-02-17T19:09:15.470Z,101075.50
2023-02-17T19:11:45.581Z,101084.72
2023-02-17T19:14:18.132Z,101075.03
2023-02-17T19:16:48.150Z,101046.03
2023-02-17T19:19:21.367Z,101087.84
2023-02-17T19:21:51.630Z,101083.38
2023-02-17T19:24:21.646Z,101072.97
2023-02-17T19:26:53.155Z,101084.97
2023-02-17T19:29:25.848Z,101077.28
2023-02-17T19:31:59.671Z,101091.31
2023-02-17T19:34:34.237Z,101088.28
2023-02-17T19:37:04.620Z,101060.94
2023-02-17T19:39:38.953Z,101085.56
2023-02-17T19:42:08.985Z,101091.69
2023-02-17T19:44:41.599Z,101094.94
2023-02-17T19:47:11.935Z,101108.44
2023-02-17T19:49:42.088Z,101119.06
2023-02-17T19:52:12.254Z,101103.00
2023-02-17T19:54:42.195Z,101118.94
2023-02-17T19:57:12.235Z,101123.06
2023-02-17T19:59:44.791Z,101128.69
2023-02-17T20:02:18.102Z,101125.09
2023-02-17T20:04:48.030Z,101133.94
2023-02-17T20:07:17.985Z,101137.16
2023-02-17T20:09:47.899Z,101135.75
2023-02-17T20:12:18.131Z,101147.97
2023-02-17T20:14:50.875Z,101135.47
2023-02-17T20:17:20.789Z,101151.59
2023-02-17T20:19:51.018Z,101149.09
2023-02-17T20:22:21.466Z,101160.03
2023-02-17T20:24:51.716Z,101146.06
2023-02-17T20:27:21.919Z,101158.97
2023-02-17T20:29:54.433Z,101158.44
2023-02-17T20:32:25.865Z,101164.03
2023-02-17T20:34:55.996Z,101165.50
2023-02-17T20:37:26.005Z,101175.06
2023-02-17T20:39:56.056Z,101173.47
2023-02-17T20:42:26.343Z,101178.00
2023-02-17T20:44:58.954Z,101182.28
2023-02-17T20:47:28.997Z,101191.97
2023-02-17T20:49:59.534Z,101182.09
2023-02-17T20:52:29.565Z,101175.88
2023-02-17T20:54:59.645Z,101190.53
2023-02-17T20:57:30.148Z,101200.56
2023-02-17T21:00:04.414Z,101195.34
2023-02-17T21:02:34.070Z,101206.66
2023-02-17T21:05:04.390Z,101189.66
2023-02-17T21:07:34.249Z,101194.47
2023-02-17T21:10:04.571Z,101209.00
2023-02-17T21:12:34.700Z,101183.84
2023-02-17T21:15:07.788Z,101213.28
2023-02-17T21:17:37.985Z,101213.44
2023-02-17T21:20:09.286Z,101212.38
2023-02-17T21:22:39.652Z,101217.41
2023-02-17T21:25:10.582Z,101216.00
2023-02-17T21:27:40.724Z,101223.69
2023-02-17T21:30:15.062Z,101222.09
2023-02-17T21:32:44.922Z,101224.97
2023-02-17T21:35:14.977Z,101243.59
2023-02-17T21:37:45.202Z,101235.91
2023-02-17T21:40:17.349Z,101231.78
2023-02-17T21:42:59.556Z,101238.22
2023-02-17T21:45:39.462Z,101240.53
2023-02-17T21:48:10.357Z,101246.81
2023-02-17T21:50:40.476Z,101251.50
2023-02-17T21:53:10.448Z,101257.22
2023-02-17T21:55:40.494Z,101258.66
2023-02-17T21:58:10.517Z,101264.94
2023-02-17T22:00:43.193Z,101259.44
2023-02-17T22:03:13.050Z,101264.44
2023-02-17T22:05:44.399Z,101265.31
2023-02-17T22:08:15.042Z,101268.38
2023-02-17T22:10:45.780Z,101273.22
2023-02-17T22:13:15.674Z,101288.78
2023-02-17T22:15:48.584Z,101280.91
2023-02-17T22:18:18.412Z,101283.78
2023-02-17T22:20:48.567Z,101271.09
2023-02-17T22:23:18.490Z,101276.97
2023-02-17T22:25:48.408Z,101293.44
2023-02-17T22:28:18.293Z,101271.97
2023-02-17T22:30:56.085Z,101282.16
2023-02-17T22:33:26.057Z,101290.41
2023-02-17T22:36:00.388Z,101298.84
2023-02-17T22:38:30.819Z,101290.94
2023-02-17T22:41:00.879Z,101285.25
2023-02-17T22:43:30.754Z,101275.41
2023-02-17T22:46:04.366Z,101282.00
2023-02-17T22:48:35.913Z,101292.38
2023-02-17T22:51:08.217Z,101295.25
2023-02-17T22:53:38.751Z,101292.75
2023-02-17T22:56:09.760Z,101300.97
2023-02-17T22:58:42.454Z,101297.38
2023-02-17T23:01:17.710Z,101304.38
2023-02-17T23:03:52.394Z,101291.84
2023-02-17T23:06:26.570Z,101300.06
2023-02-17T23:08:57.482Z,101277.19
2023-02-17T23:11:42.462Z,101293.81
2023-02-17T23:14:13.283Z,101299.38
2023-02-17T23:16:47.799Z,101298.63
2023-02-17T23:19:19.584Z,101304.22
2023-02-17T23:21:51.556Z,101303.66
2023-02-17T23:24:22.668Z,101307.59
2023-02-17T23:26:53.744Z,101304.22
2023-02-17T23:29:24.785Z,101302.41
2023-02-17T23:31:57.623Z,101301.50
2023-02-17T23:34:28.424Z,101317.81
2023-02-17T23:36:58.304Z,101305.28
2023-02-17T23:39:28.841Z,101304.38
2023-02-17T23:41:58.846Z,101311.91
2023-02-17T23:44:28.879Z,101302.94
2023-02-17T23:47:01.684Z,101297.94
2023-02-17T23:49:31.596Z,101297.75
2023-02-17T23:52:01.678Z,101310.09
2023-02-17T23:54:31.587Z,101310.66
2023-02-17T23:57:01.401Z,101304.56
2023-02-17T23:59:31.312Z,101290.81
